createdAt,value
2018-06-03T00:00:50.500Z,11.2
2018-06-03T00:02:49.717Z,11.2
2018-06-03T00:04:50.179Z,10.3
2018-06-03T00:06:49.605Z,10.6
2018-06-03T00:08:49.724Z,10.6
2018-06-03T00:10:49.973Z,10.4
2018-06-03T00:12:50.234Z,10.4
2018-06-03T00:14:50.468Z,10.4
2018-06-03T00:16:49.897Z,11.4
2018-06-03T00:18:50.149Z,11.0
2018-06-03T00:20:50.314Z,10.5
2018-06-03T00:22:49.539Z,10.5
2018-06-03T00:24:49.676Z,11.3
2018-06-03T00:26:49.994Z,11.1
2018-06-03T00:28:50.207Z,10.9
2018-06-03T00:30:50.408Z,10.9
2018-06-03T00:32:49.579Z,10.6
2018-06-03T00:34:49.943Z,10.9
2018-06-03T00:36:50.351Z,10.7
2018-06-03T00:38:50.377Z,10.9
2018-06-03T00:40:49.649Z,10.9
2018-06-03T00:42:49.806Z,11.2
2018-06-03T00:44:49.994Z,11.0
2018-06-03T00:46:50.397Z,11.1
2018-06-03T00:48:49.610Z,11.1
2018-06-03T00:50:49.835Z,10.8
2018-06-03T00:52:50.071Z,10.9
2018-06-03T00:54:50.433Z,10.4
2018-06-03T00:56:49.724Z,10.4
2018-06-03T00:58:49.568Z,10.6
2018-06-03T01:00:49.763Z,10.7
2018-06-03T01:02:50.121Z,10.2
2018-06-03T01:04:49.592Z,10.0
2018-06-03T01:06:49.972Z,10.0
2018-06-03T01:08:50.208Z,10.0
2018-06-03T01:10:50.364Z,10.0
2018-06-03T01:12:49.570Z,9.7
2018-06-03T01:14:49.703Z,9.7
2018-06-03T01:16:49.965Z,10.4
2018-06-03T01:18:50.185Z,10.4
2018-06-03T01:20:50.440Z,9.8
2018-06-03T01:22:49.603Z,9.9
2018-06-03T01:24:49.787Z,9.5
2018-06-03T01:26:50.092Z,9.5
2018-06-03T01:28:50.320Z,9.1
2018-06-03T01:30:50.493Z,9.8
2018-06-03T01:32:49.775Z,9.6
2018-06-03T01:34:50.260Z,10.1
2018-06-03T01:36:49.524Z,10.1
2018-06-03T01:38:49.736Z,9.8
2018-06-03T01:40:49.942Z,9.4
2018-06-03T01:42:50.219Z,9.9
2018-06-03T01:44:50.441Z,9.9
2018-06-03T01:46:49.772Z,9.7
2018-06-03T01:48:49.988Z,9.8
2018-06-03T01:50:50.229Z,10.3
2018-06-03T01:52:50.441Z,10.0
2018-06-03T01:54:49.611Z,10.1
2018-06-03T01:56:49.901Z,10.1
2018-06-03T01:58:50.110Z,10.8
2018-06-03T02:00:50.322Z,11.9
2018-06-03T02:02:49.549Z,11.9
2018-06-03T02:04:50.031Z,10.7
2018-06-03T02:06:50.272Z,10.7
2018-06-03T02:08:50.203Z,11.4
2018-06-03T02:10:50.374Z,11.0
2018-06-03T02:12:49.546Z,11.1
2018-06-03T02:14:49.700Z,11.3
2018-06-03T02:16:50.004Z,11.3
2018-06-03T02:18:50.214Z,12.5
2018-06-03T02:20:50.403Z,12.2
2018-06-03T02:22:49.591Z,12.2
2018-06-03T02:24:49.868Z,12.2
2018-06-03T02:26:50.371Z,12.2
2018-06-03T02:28:49.524Z,11.3
2018-06-03T02:30:49.773Z,11.9
2018-06-03T02:32:49.993Z,12.7
2018-06-03T02:34:50.494Z,12.7
2018-06-03T02:36:49.840Z,12.4
2018-06-03T02:38:50.185Z,12.4
2018-06-03T02:40:50.375Z,12.4
2018-06-03T02:42:49.617Z,12.3
2018-06-03T02:44:49.807Z,12.3
2018-06-03T02:46:50.128Z,12.7
2018-06-03T02:48:50.317Z,12.3
2018-06-03T02:50:49.601Z,13.6
2018-06-03T02:52:49.833Z,14.8
2018-06-03T02:54:50.228Z,14.8
2018-06-03T02:56:49.586Z,14.0
2018-06-03T02:58:49.768Z,13.5
2018-06-03T03:00:49.956Z,13.5
2018-06-03T03:02:50.110Z,14.4
2018-06-03T03:04:50.456Z,14.4
2018-06-03T03:06:49.831Z,14.5
2018-06-03T03:08:50.154Z,14.5
2018-06-03T03:10:50.332Z,14.5
2018-06-03T03:12:49.641Z,14.5
2018-06-03T03:14:49.825Z,15.1
2018-06-03T03:16:50.203Z,14.5
2018-06-03T03:18:50.387Z,14.2
2018-06-03T03:20:49.551Z,14.3
2018-06-03T03:22:49.799Z,14.3
2018-06-03T03:24:49.915Z,13.3
2018-06-03T03:26:50.218Z,12.9
2018-06-03T03:28:50.475Z,12.1
2018-06-03T03:30:49.656Z,12.1
2018-06-03T03:32:49.826Z,11.9
2018-06-03T03:34:50.347Z,12.1
2018-06-03T03:36:49.620Z,13.0
2018-06-03T03:38:49.859Z,13.0
2018-06-03T03:40:50.110Z,12.2
2018-06-03T03:42:50.300Z,12.2
2018-06-03T03:44:49.562Z,11.2
2018-06-03T03:46:49.909Z,11.4
2018-06-03T03:48:50.038Z,11.8
2018-06-03T03:50:50.204Z,11.5
2018-06-03T03:52:50.484Z,11.5
2018-06-03T03:54:49.701Z,11.3
2018-06-03T03:56:49.993Z,11.5
2018-06-03T03:58:50.193Z,11.0
2018-06-03T04:00:50.393Z,10.8
2018-06-03T04:02:49.679Z,10.8
2018-06-03T04:04:50.190Z,10.8
2018-06-03T04:06:50.530Z,10.7
2018-06-03T04:08:49.745Z,11.3
2018-06-03T04:10:49.884Z,11.3
2018-06-03T04:12:50.077Z,11.3
2018-06-03T04:14:50.264Z,11.0
2018-06-03T04:16:49.589Z,10.9
2018-06-03T04:18:49.766Z,10.1
2018-06-03T04:20:49.939Z,10.1
2018-06-03T04:22:50.240Z,10.9
2018-06-03T04:24:50.468Z,11.2
2018-06-03T04:26:50.233Z,11.2
2018-06-03T04:28:50.415Z,11.0
2018-06-03T04:30:49.550Z,11.0
2018-06-03T04:32:49.833Z,11.0
2018-06-03T04:34:50.405Z,11.1
2018-06-03T04:36:49.651Z,10.1
2018-06-03T04:38:49.830Z,11.2
2018-06-03T04:40:49.980Z,11.2
2018-06-03T04:42:50.200Z,10.0
2018-06-03T04:44:50.397Z,10.6
2018-06-03T04:46:49.779Z,10.6
2018-06-03T04:48:50.133Z,10.5
2018-06-03T04:50:49.763Z,10.5
2018-06-03T04:52:49.981Z,10.8
2018-06-03T04:54:50.203Z,11.0
2018-06-03T04:56:50.516Z,9.8
2018-06-03T04:58:49.707Z,10.3
2018-06-03T05:00:49.882Z,10.3
2018-06-03T05:02:50.053Z,10.2
2018-06-03T05:04:50.437Z,10.0
2018-06-03T05:06:49.771Z,9.6
2018-06-03T05:08:49.934Z,9.6
2018-06-03T05:10:50.116Z,9.6
2018-06-03T05:12:50.409Z,9.7
2018-06-03T05:14:49.576Z,10.1
2018-06-03T05:16:49.848Z,10.2
2018-06-03T05:18:50.044Z,10.2
2018-06-03T05:20:50.256Z,10.3
2018-06-03T05:22:50.368Z,10.1
2018-06-03T05:24:50.476Z,9.5
2018-06-03T05:26:49.752Z,9.7
2018-06-03T05:28:49.969Z,9.7
2018-06-03T05:30:50.203Z,9.4
2018-06-03T05:32:50.382Z,9.6
2018-06-03T05:34:49.925Z,9.5
2018-06-03T05:36:49.826Z,9.6
2018-06-03T05:38:50.110Z,9.6
2018-06-03T05:40:50.307Z,9.8
2018-06-03T05:42:49.579Z,10.6
2018-06-03T05:44:49.769Z,10.6
2018-06-03T05:46:50.098Z,10.6
2018-06-03T05:48:50.248Z,9.4
2018-06-03T05:50:50.416Z,9.2
2018-06-03T05:52:49.544Z,8.9
2018-06-03T05:54:49.749Z,8.8
2018-06-03T05:56:50.125Z,8.3
2018-06-03T05:58:50.344Z,8.3
2018-06-03T06:00:50.476Z,8.8
2018-06-03T06:02:49.670Z,8.7
2018-06-03T06:04:50.079Z,8.5
2018-06-03T06:06:50.400Z,8.1
2018-06-03T06:08:49.573Z,8.1
2018-06-03T06:10:49.806Z,8.0
2018-06-03T06:12:49.926Z,7.8
2018-06-03T06:14:50.125Z,7.8
2018-06-03T06:16:50.367Z,7.8
2018-06-03T06:18:49.543Z,8.0
2018-06-03T06:20:49.784Z,7.7
2018-06-03T06:22:50.079Z,7.7
2018-06-03T06:24:50.295Z,7.2
2018-06-03T06:26:49.578Z,7.2
2018-06-03T06:28:49.708Z,7.3
2018-06-03T06:30:49.829Z,7.3
2018-06-03T06:32:49.948Z,7.6
2018-06-03T06:34:50.534Z,7.4
2018-06-03T06:36:50.372Z,7.4
2018-06-03T06:38:49.632Z,7.7
2018-06-03T06:40:49.873Z,7.1
2018-06-03T06:42:49.571Z,7.6
2018-06-03T06:44:49.712Z,7.2
2018-06-03T06:46:49.987Z,7.2
2018-06-03T06:48:50.197Z,7.4
2018-06-03T06:50:50.445Z,7.6
2018-06-03T06:52:49.640Z,7.0
2018-06-03T06:54:49.831Z,7.0
2018-06-03T06:56:50.068Z,7.1
2018-06-03T06:58:50.329Z,10.0
2018-06-03T07:00:50.554Z,7.6
2018-06-03T07:02:49.761Z,6.8
2018-06-03T07:04:50.320Z,6.8
2018-06-03T07:06:49.749Z,7.1
2018-06-03T07:08:50.191Z,6.9
2018-06-03T07:10:50.368Z,7.0
2018-06-03T07:12:50.502Z,7.1
2018-06-03T07:14:49.707Z,7.1
2018-06-03T07:16:50.086Z,7.3
2018-06-03T07:18:50.268Z,6.6
2018-06-03T07:20:50.432Z,7.4
2018-06-03T07:22:49.621Z,6.8
2018-06-03T07:24:49.764Z,6.8
2018-06-03T07:26:50.059Z,6.9
2018-06-03T07:28:50.303Z,6.8
2018-06-03T07:30:50.436Z,6.8
2018-06-03T07:32:49.646Z,6.7
2018-06-03T07:34:50.026Z,6.7
2018-06-03T07:36:50.352Z,7.2
2018-06-03T07:38:50.515Z,7.1
2018-06-03T07:40:49.775Z,7.1
2018-06-03T07:42:50.044Z,7.0
2018-06-03T07:44:50.232Z,6.8
2018-06-03T07:46:49.735Z,7.3
2018-06-03T07:48:49.959Z,6.8
2018-06-03T07:50:50.117Z,6.8
2018-06-03T07:52:50.277Z,7.0
2018-06-03T07:54:50.434Z,7.0
2018-06-03T07:56:49.735Z,6.5
2018-06-03T07:58:49.966Z,7.2
2018-06-03T08:00:50.138Z,7.0
2018-06-03T08:02:50.371Z,7.0
2018-06-03T08:04:49.915Z,6.8
2018-06-03T08:06:50.191Z,6.3
2018-06-03T08:08:50.390Z,6.3
2018-06-03T08:10:49.574Z,6.9
2018-06-03T08:12:49.751Z,6.9
2018-06-03T08:14:49.962Z,6.8
2018-06-03T08:16:50.316Z,6.8
2018-06-03T08:18:50.501Z,6.6
2018-06-03T08:20:49.659Z,6.6
2018-06-03T08:22:50.065Z,6.7
2018-06-03T08:24:49.783Z,6.4
2018-06-03T08:26:50.000Z,6.4
2018-06-03T08:28:50.238Z,6.3
2018-06-03T08:30:50.427Z,6.2
2018-06-03T08:32:49.661Z,6.2
2018-06-03T08:34:50.043Z,6.3
2018-06-03T08:36:50.398Z,5.9
2018-06-03T08:38:49.583Z,5.9
2018-06-03T08:40:49.727Z,5.9
2018-06-03T08:42:49.884Z,5.7
2018-06-03T08:44:50.137Z,5.4
2018-06-03T08:46:50.507Z,5.4
2018-06-03T08:48:49.855Z,5.0
2018-06-03T08:50:50.085Z,5.0
2018-06-03T08:52:50.267Z,5.5
2018-06-03T08:54:50.425Z,5.1
2018-06-03T08:56:49.777Z,5.2
2018-06-03T08:58:49.977Z,4.9
2018-06-03T09:00:50.190Z,4.9
2018-06-03T09:02:50.466Z,5.3
2018-06-03T09:04:49.894Z,5.6
2018-06-03T09:06:50.189Z,5.6
2018-06-03T09:08:49.625Z,5.3
2018-06-03T09:10:49.836Z,5.2
2018-06-03T09:12:50.031Z,5.5
2018-06-03T09:14:50.186Z,5.1
2018-06-03T09:16:49.571Z,5.7
2018-06-03T09:18:49.777Z,5.2
2018-06-03T09:20:50.311Z,5.2
2018-06-03T09:22:49.579Z,5.2
2018-06-03T09:24:49.769Z,5.6
2018-06-03T09:26:50.138Z,5.6
2018-06-03T09:28:50.326Z,5.6
2018-06-03T09:30:50.480Z,5.4
2018-06-03T09:32:49.607Z,4.6
2018-06-03T09:34:49.939Z,4.5
2018-06-03T09:36:50.210Z,4.0
2018-06-03T09:38:50.434Z,4.0
2018-06-03T09:40:49.744Z,4.3
2018-06-03T09:42:49.961Z,3.9
2018-06-03T09:44:50.169Z,3.9
2018-06-03T09:46:50.479Z,5.2
2018-06-03T09:48:49.633Z,5.2
2018-06-03T09:50:49.800Z,4.6
2018-06-03T09:52:49.948Z,4.7
2018-06-03T09:54:50.163Z,4.7
2018-06-03T09:56:50.513Z,4.1
2018-06-03T09:58:49.729Z,4.1
2018-06-03T10:00:49.981Z,3.7
2018-06-03T10:02:50.184Z,4.0
2018-06-03T10:04:49.682Z,4.0
2018-06-03T10:06:49.938Z,4.1
2018-06-03T10:08:50.108Z,4.1
2018-06-03T10:10:50.305Z,3.6
2018-06-03T10:12:49.533Z,3.6
2018-06-03T10:14:49.642Z,3.9
2018-06-03T10:16:49.915Z,3.6
2018-06-03T10:18:50.081Z,3.5
2018-06-03T10:20:50.244Z,3.5
2018-06-03T10:22:50.381Z,3.6
2018-06-03T10:24:50.531Z,3.6
2018-06-03T10:26:49.694Z,3.6
2018-06-03T10:28:49.897Z,3.6
2018-06-03T10:30:50.103Z,3.7
2018-06-03T10:32:50.283Z,3.7
2018-06-03T10:34:49.884Z,3.8
2018-06-03T10:36:50.097Z,3.8
2018-06-03T10:38:50.291Z,3.4
2018-06-03T10:40:50.465Z,3.5
2018-06-03T10:42:49.598Z,3.5
2018-06-03T10:44:49.736Z,3.7
2018-06-03T10:46:49.932Z,3.7
2018-06-03T10:48:50.106Z,3.7
2018-06-03T10:50:50.304Z,3.4
2018-06-03T10:52:50.459Z,3.4
2018-06-03T10:54:49.589Z,3.4
2018-06-03T10:56:49.917Z,3.6
2018-06-03T10:58:50.105Z,3.5
2018-06-03T11:00:50.220Z,3.6
2018-06-03T11:02:50.371Z,3.7
2018-06-03T11:04:49.760Z,3.7
2018-06-03T11:06:50.093Z,3.5
2018-06-03T11:08:50.310Z,3.4
2018-06-03T11:10:50.470Z,2.9
2018-06-03T11:12:49.611Z,3.0
2018-06-03T11:14:49.769Z,3.0
2018-06-03T11:16:50.114Z,3.2
2018-06-03T11:18:50.328Z,3.1
2018-06-03T11:20:50.491Z,2.7
2018-06-03T11:22:49.628Z,3.0
2018-06-03T11:24:49.731Z,3.0
2018-06-03T11:26:50.047Z,2.9
2018-06-03T11:28:50.252Z,2.7
2018-06-03T11:30:50.396Z,2.9
2018-06-03T11:32:49.650Z,3.0
2018-06-03T11:34:50.031Z,3.0
2018-06-03T11:36:50.303Z,3.1
2018-06-03T11:38:50.499Z,3.0
2018-06-03T11:40:49.679Z,2.9
2018-06-03T11:42:49.844Z,3.0
2018-06-03T11:44:49.977Z,3.0
2018-06-03T11:46:50.293Z,3.4
2018-06-03T11:48:50.425Z,2.9
2018-06-03T11:50:49.614Z,2.9
2018-06-03T11:52:49.854Z,2.9
2018-06-03T11:54:50.087Z,2.9
2018-06-03T11:56:50.472Z,2.9
2018-06-03T11:58:49.594Z,3.4
2018-06-03T12:00:49.760Z,3.2
2018-06-03T12:02:49.949Z,3.2
2018-06-03T12:04:50.281Z,3.2
2018-06-03T12:06:49.598Z,3.1
2018-06-03T12:08:49.789Z,3.2
2018-06-03T12:10:49.982Z,3.0
2018-06-03T12:12:50.106Z,3.0
2018-06-03T12:14:50.308Z,3.2
2018-06-03T12:16:49.618Z,3.0
2018-06-03T12:18:49.772Z,3.1
2018-06-03T12:20:49.947Z,3.1
2018-06-03T12:22:50.119Z,3.2
2018-06-03T12:24:50.339Z,2.9
2018-06-03T12:26:49.641Z,2.9
2018-06-03T12:28:49.863Z,3.0
2018-06-03T12:30:50.032Z,3.0
2018-06-03T12:32:50.202Z,3.0
2018-06-03T12:34:49.594Z,2.9
2018-06-03T12:36:49.974Z,2.6
2018-06-03T12:38:50.108Z,2.9
2018-06-03T12:40:50.301Z,2.9
2018-06-03T12:42:50.516Z,2.7
2018-06-03T12:44:49.742Z,3.0
2018-06-03T12:46:50.043Z,3.0
2018-06-03T12:48:50.202Z,2.8
2018-06-03T12:50:50.374Z,2.8
2018-06-03T12:52:50.494Z,2.6
2018-06-03T12:54:49.632Z,2.6
2018-06-03T12:56:49.994Z,2.6
2018-06-03T12:58:50.172Z,2.5
2018-06-03T13:00:50.339Z,2.5
2018-06-03T13:02:50.548Z,2.4
2018-06-03T13:04:49.888Z,2.6
2018-06-03T13:06:50.130Z,2.6
2018-06-03T13:08:50.334Z,2.5
2018-06-03T13:10:50.523Z,2.5
2018-06-03T13:12:49.654Z,2.7
2018-06-03T13:14:49.805Z,2.7
2018-06-03T13:16:50.128Z,2.6
2018-06-03T13:18:50.339Z,2.9
2018-06-03T13:20:49.736Z,2.9
2018-06-03T13:22:49.874Z,2.9
2018-06-03T13:24:49.998Z,2.7
2018-06-03T13:26:50.289Z,2.6
2018-06-03T13:28:50.482Z,2.6
2018-06-03T13:30:49.624Z,2.8
2018-06-03T13:32:49.767Z,2.5
2018-06-03T13:34:50.318Z,3.0
2018-06-03T13:36:49.545Z,3.0
2018-06-03T13:38:49.680Z,3.0
2018-06-03T13:40:49.876Z,2.7
2018-06-03T13:42:50.023Z,2.8
2018-06-03T13:44:50.220Z,2.4
2018-06-03T13:46:50.459Z,2.4
2018-06-03T13:48:49.585Z,2.6
2018-06-03T13:50:49.719Z,2.6
2018-06-03T13:52:49.908Z,2.6
2018-06-03T13:54:50.024Z,2.5
2018-06-03T13:56:50.300Z,2.5
2018-06-03T13:58:50.454Z,2.6
2018-06-03T14:00:49.693Z,2.6
2018-06-03T14:02:49.838Z,2.8
2018-06-03T14:04:50.211Z,2.6
2018-06-03T14:06:50.474Z,2.6
2018-06-03T14:08:49.634Z,2.9
2018-06-03T14:10:49.755Z,2.8
2018-06-03T14:12:49.912Z,2.6
2018-06-03T14:14:50.100Z,2.7
2018-06-03T14:16:50.341Z,2.7
2018-06-03T14:18:49.536Z,2.5
2018-06-03T14:20:49.770Z,2.5
2018-06-03T14:22:49.916Z,2.6
2018-06-03T14:24:50.108Z,2.4
2018-06-03T14:26:50.449Z,2.4
2018-06-03T14:28:49.609Z,2.6
2018-06-03T14:30:49.810Z,2.7
2018-06-03T14:32:49.990Z,2.4
2018-06-03T14:34:50.461Z,2.4
2018-06-03T14:36:49.704Z,2.4
2018-06-03T14:38:49.865Z,2.5
2018-06-03T14:40:49.977Z,2.5
2018-06-03T14:42:50.226Z,2.5
2018-06-03T14:44:50.384Z,2.4
2018-06-03T14:46:49.733Z,2.4
2018-06-03T14:48:49.919Z,2.4
2018-06-03T14:50:50.158Z,2.3
2018-06-03T14:52:50.334Z,2.5
2018-06-03T14:54:50.450Z,2.6
2018-06-03T14:56:49.723Z,2.6
2018-06-03T14:58:49.794Z,2.4
2018-06-03T15:00:49.959Z,2.7
2018-06-03T15:02:50.186Z,2.5
2018-06-03T15:04:49.537Z,2.6
2018-06-03T15:06:49.784Z,2.6
2018-06-03T15:08:49.901Z,2.6
2018-06-03T15:10:50.237Z,2.6
2018-06-03T15:12:49.515Z,2.8
2018-06-03T15:14:49.639Z,2.8
2018-06-03T15:16:49.930Z,2.8
2018-06-03T15:18:50.062Z,2.7
2018-06-03T15:20:50.285Z,2.6
2018-06-03T15:22:50.491Z,2.6
2018-06-03T15:24:49.682Z,2.6
2018-06-03T15:26:49.977Z,2.8
2018-06-03T15:28:50.148Z,2.6
2018-06-03T15:30:50.350Z,2.5
2018-06-03T15:32:49.534Z,2.5
2018-06-03T15:34:49.983Z,2.5
2018-06-03T15:36:50.294Z,2.8
2018-06-03T15:38:50.522Z,2.5
2018-06-03T15:40:49.675Z,2.5
2018-06-03T15:42:49.822Z,2.4
2018-06-03T15:44:50.040Z,2.8
2018-06-03T15:46:50.294Z,2.7
2018-06-03T15:48:50.452Z,2.7
2018-06-03T15:50:49.571Z,2.7
2018-06-03T15:52:49.746Z,2.5
2018-06-03T15:54:49.882Z,2.9
2018-06-03T15:56:50.124Z,2.5
2018-06-03T15:58:50.322Z,2.6
2018-06-03T16:00:50.459Z,2.5
2018-06-03T16:02:49.809Z,2.5
2018-06-03T16:04:50.179Z,2.6
2018-06-03T16:06:50.553Z,2.6
2018-06-03T16:08:49.722Z,2.9
2018-06-03T16:10:49.875Z,2.9
2018-06-03T16:12:50.161Z,2.9
2018-06-03T16:14:50.258Z,2.6
2018-06-03T16:16:49.691Z,2.8
2018-06-03T16:18:49.814Z,2.7
2018-06-03T16:20:49.951Z,2.4
2018-06-03T16:22:50.063Z,2.4
2018-06-03T16:24:50.150Z,2.9
2018-06-03T16:26:50.395Z,3.0
2018-06-03T16:28:49.562Z,2.7
2018-06-03T16:30:49.756Z,2.7
2018-06-03T16:32:49.909Z,2.6
2018-06-03T16:34:50.280Z,2.8
2018-06-03T16:36:50.590Z,2.9
2018-06-03T16:38:49.738Z,2.9
2018-06-03T16:40:49.900Z,2.9
2018-06-03T16:42:50.035Z,2.7
2018-06-03T16:44:50.206Z,2.7
2018-06-03T16:46:49.625Z,2.7
2018-06-03T16:48:49.754Z,2.7
2018-06-03T16:50:49.925Z,2.7
2018-06-03T16:52:50.070Z,2.5
2018-06-03T16:54:50.192Z,2.8
2018-06-03T16:56:50.478Z,2.7
2018-06-03T16:58:49.613Z,2.7
2018-06-03T17:00:49.755Z,2.7
2018-06-03T17:02:49.960Z,2.7
2018-06-03T17:04:50.261Z,2.7
2018-06-03T17:06:50.532Z,2.5
2018-06-03T17:08:49.688Z,2.8
2018-06-03T17:10:49.839Z,2.8
2018-06-03T17:12:50.013Z,2.7
2018-06-03T17:14:50.206Z,3.0
2018-06-03T17:16:49.892Z,3.2
2018-06-03T17:18:50.014Z,3.0
2018-06-03T17:20:50.119Z,3.0
2018-06-03T17:22:50.254Z,3.0
2018-06-03T17:24:50.431Z,3.1
2018-06-03T17:26:49.625Z,2.6
2018-06-03T17:28:49.794Z,3.1
2018-06-03T17:30:49.987Z,3.1
2018-06-03T17:32:50.141Z,3.3
2018-06-03T17:34:49.639Z,3.2
2018-06-03T17:36:49.862Z,3.3
2018-06-03T17:38:50.079Z,3.2
2018-06-03T17:40:50.270Z,3.2
2018-06-03T17:42:50.453Z,3.1
2018-06-03T17:44:49.679Z,3.3
2018-06-03T17:46:49.832Z,3.1
2018-06-03T17:48:50.070Z,3.2
2018-06-03T17:50:50.202Z,3.2
2018-06-03T17:52:50.315Z,3.2
2018-06-03T17:54:50.583Z,3.1
2018-06-03T17:56:50.022Z,3.1
2018-06-03T17:58:50.186Z,3.1
2018-06-03T18:00:50.353Z,4.5
2018-06-03T18:02:49.557Z,3.5
2018-06-03T18:04:49.911Z,3.3
2018-06-03T18:06:50.163Z,3.2
2018-06-03T18:08:50.305Z,3.2
2018-06-03T18:10:50.510Z,3.2
2018-06-03T18:12:49.753Z,3.4
2018-06-03T18:14:49.978Z,3.4
2018-06-03T18:16:50.323Z,3.4
2018-06-03T18:18:49.677Z,3.3
2018-06-03T18:20:49.845Z,3.4
2018-06-03T18:22:50.054Z,3.6
2018-06-03T18:24:50.206Z,3.6
2018-06-03T18:26:50.361Z,3.6
2018-06-03T18:28:49.637Z,3.7
2018-06-03T18:30:49.762Z,3.5
2018-06-03T18:32:49.896Z,3.7
2018-06-03T18:34:50.328Z,3.7
2018-06-03T18:36:49.631Z,3.6
2018-06-03T18:38:49.752Z,3.7
2018-06-03T18:40:49.930Z,3.7
2018-06-03T18:42:50.151Z,4.1
2018-06-03T18:44:50.310Z,3.9
2018-06-03T18:46:49.630Z,3.9
2018-06-03T18:48:49.881Z,10.3
2018-06-03T18:50:50.005Z,8.3
2018-06-03T18:52:50.220Z,5.0
2018-06-03T18:54:50.372Z,4.2
2018-06-03T18:56:49.733Z,4.2
2018-06-03T18:58:49.919Z,3.9
2018-06-03T19:00:50.102Z,3.6
2018-06-03T19:02:50.408Z,3.6
2018-06-03T19:04:49.741Z,4.3
2018-06-03T19:06:49.945Z,4.3
2018-06-03T19:08:50.153Z,4.4
2018-06-03T19:10:50.286Z,4.3
2018-06-03T19:12:50.465Z,4.2
2018-06-03T19:14:49.594Z,4.2
2018-06-03T19:16:49.787Z,4.2
2018-06-03T19:18:50.023Z,4.3
2018-06-03T19:20:50.136Z,4.4
2018-06-03T19:22:50.224Z,4.1
2018-06-03T19:24:50.328Z,4.1
2018-06-03T19:26:50.564Z,4.3
2018-06-03T19:28:49.697Z,4.4
2018-06-03T19:30:49.868Z,5.2
2018-06-03T19:32:50.017Z,5.1
2018-06-03T19:34:50.498Z,5.1
2018-06-03T19:36:49.713Z,5.4
2018-06-03T19:38:49.991Z,5.7
2018-06-03T19:40:50.311Z,4.8
2018-06-03T19:42:49.951Z,4.8
2018-06-03T19:44:50.125Z,5.0
2018-06-03T19:46:50.411Z,4.7
2018-06-03T19:48:49.564Z,5.7
2018-06-03T19:50:49.722Z,5.7
2018-06-03T19:52:49.896Z,5.2
2018-06-03T19:54:50.029Z,5.2
2018-06-03T19:56:50.361Z,5.6
2018-06-03T19:58:50.514Z,5.2
2018-06-03T20:00:49.654Z,5.0
2018-06-03T20:02:49.765Z,5.0
2018-06-03T20:04:50.162Z,4.9
2018-06-03T20:06:50.350Z,5.1
2018-06-03T20:08:50.514Z,5.3
2018-06-03T20:10:49.683Z,5.5
2018-06-03T20:12:50.244Z,5.5
2018-06-03T20:14:50.382Z,5.4
2018-06-03T20:16:49.619Z,5.8
2018-06-03T20:18:49.992Z,5.8
2018-06-03T20:20:50.131Z,5.8
2018-06-03T20:22:50.246Z,5.8
2018-06-03T20:24:50.421Z,5.9
2018-06-03T20:26:49.626Z,5.2
2018-06-03T20:28:49.766Z,5.3
2018-06-03T20:30:49.945Z,5.5
2018-06-03T20:32:50.137Z,5.5
2018-06-03T20:34:49.695Z,5.6
2018-06-03T20:36:50.135Z,5.5
2018-06-03T20:38:50.339Z,6.0
2018-06-03T20:40:49.568Z,5.2
2018-06-03T20:42:49.870Z,5.2
2018-06-03T20:44:49.620Z,5.7
2018-06-03T20:46:49.901Z,5.6
2018-06-03T20:48:50.054Z,5.6
2018-06-03T20:50:50.151Z,5.5
2018-06-03T20:52:50.362Z,5.5
2018-06-03T20:54:49.546Z,5.4
2018-06-03T20:56:49.758Z,5.5
2018-06-03T20:58:49.946Z,5.3
2018-06-03T21:00:50.153Z,5.3
2018-06-03T21:02:50.395Z,4.9
2018-06-03T21:04:49.690Z,4.8
2018-06-03T21:06:49.895Z,4.8
2018-06-03T21:08:50.051Z,4.8
2018-06-03T21:10:50.193Z,4.9
2018-06-03T21:12:50.368Z,5.1
2018-06-03T21:14:49.599Z,4.9
2018-06-03T21:16:49.857Z,5.0
2018-06-03T21:18:50.022Z,5.0
2018-06-03T21:20:50.197Z,4.9
2018-06-03T21:22:50.317Z,5.0
2018-06-03T21:24:49.625Z,5.1
2018-06-03T21:26:49.881Z,4.9
2018-06-03T21:28:50.014Z,4.9
2018-06-03T21:30:50.178Z,5.3
2018-06-03T21:32:50.332Z,5.2
2018-06-03T21:34:49.888Z,5.0
2018-06-03T21:36:50.073Z,5.0
2018-06-03T21:38:50.278Z,5.4
2018-06-03T21:40:50.452Z,5.4
2018-06-03T21:42:49.590Z,5.4
2018-06-03T21:44:49.722Z,5.7
2018-06-03T21:46:50.009Z,5.7
2018-06-03T21:48:50.131Z,6.0
2018-06-03T21:50:50.233Z,6.0
2018-06-03T21:52:50.414Z,5.4
2018-06-03T21:54:49.625Z,5.2
2018-06-03T21:56:49.802Z,5.2
2018-06-03T21:58:49.930Z,5.7
2018-06-03T22:00:50.150Z,5.7
2018-06-03T22:02:50.310Z,5.7
2018-06-03T22:04:49.609Z,5.7
2018-06-03T22:06:49.833Z,5.9
2018-06-03T22:08:49.927Z,5.9
2018-06-03T22:10:50.118Z,6.0
2018-06-03T22:12:50.269Z,6.0
2018-06-03T22:14:50.364Z,6.0
2018-06-03T22:16:49.553Z,6.2
2018-06-03T22:18:49.745Z,6.2
2018-06-03T22:20:49.949Z,6.5
2018-06-03T22:22:50.115Z,6.4
2018-06-03T22:24:50.277Z,6.4
2018-06-03T22:26:49.552Z,6.2
2018-06-03T22:28:49.721Z,6.2
2018-06-03T22:30:49.888Z,6.1
2018-06-03T22:32:50.005Z,6.4
2018-06-03T22:34:50.451Z,6.0
2018-06-03T22:36:49.695Z,6.0
2018-06-03T22:38:49.859Z,6.2
2018-06-03T22:40:49.989Z,6.2
2018-06-03T22:42:50.174Z,6.2
2018-06-03T22:44:50.281Z,6.2
2018-06-03T22:46:49.565Z,6.4
2018-06-03T22:48:49.724Z,6.4
2018-06-03T22:50:49.865Z,6.4
2018-06-03T22:52:50.060Z,6.3
2018-06-03T22:54:50.298Z,6.8
2018-06-03T22:56:49.575Z,6.8
2018-06-03T22:58:50.326Z,6.7
2018-06-03T23:00:50.424Z,6.4
2018-06-03T23:02:49.785Z,6.8
2018-06-03T23:04:50.093Z,6.4
2018-06-03T23:06:50.291Z,6.4
2018-06-03T23:08:50.463Z,6.5
2018-06-03T23:10:49.596Z,6.4
2018-06-03T23:12:49.822Z,6.8
2018-06-03T23:14:50.027Z,6.4
2018-06-03T23:16:50.209Z,6.4
2018-06-03T23:18:50.392Z,6.4
2018-06-03T23:20:49.581Z,6.9
2018-06-03T23:22:49.698Z,7.0
2018-06-03T23:24:49.862Z,7.0
2018-06-03T23:26:50.060Z,7.0
2018-06-03T23:28:50.213Z,6.6
2018-06-03T23:30:50.368Z,6.9
2018-06-03T23:32:49.663Z,6.9
2018-06-03T23:34:50.035Z,6.9
2018-06-03T23:36:50.218Z,6.8
2018-06-03T23:38:50.349Z,6.7
2018-06-03T23:40:50.472Z,6.9
2018-06-03T23:42:49.654Z,7.5
2018-06-03T23:44:49.782Z,7.5
2018-06-03T23:46:50.033Z,7.6
2018-06-03T23:48:50.169Z,7.6
2018-06-03T23:50:50.338Z,7.3
2018-06-03T23:52:50.520Z,7.5
2018-06-03T23:54:49.739Z,7.5
2018-06-03T23:56:49.995Z,7.5
2018-06-03T23:58:50.176Z,7.7
